sensor_id;sensor_type;location;lat;lon;timestamp;P1;durP1;ratioP1;P2;durP2;ratioP2
84187;SDS011;74316;45.648;13.764;2023-11-21T00:01:26;6.45;;;5.68;;
84187;SDS011;74316;45.648;13.764;2023-11-21T00:03:52;9.32;;;5.82;;
84187;SDS011;74316;45.648;13.764;2023-11-21T00:06:20;7.18;;;5.32;;
84187;SDS011;74316;45.648;13.764;2023-11-21T00:08:45;8.05;;;5.90;;
84187;SDS011;74316;45.648;13.764;2023-11-21T00:11:11;6.97;;;5.32;;
84187;SDS011;74316;45.648;13.764;2023-11-21T00:13:36;6.47;;;5.50;;
84187;SDS011;74316;45.648;13.764;2023-11-21T00:16:02;8.05;;;5.60;;
84187;SDS011;74316;45.648;13.764;2023-11-21T00:18:29;6.57;;;5.90;;
84187;SDS011;74316;45.648;13.764;2023-11-21T00:20:54;7.10;;;5.78;;
84187;SDS011;74316;45.648;13.764;2023-11-21T00:23:20;6.20;;;5.57;;
84187;SDS011;74316;45.648;13.764;2023-11-21T00:25:45;6.03;;;5.43;;
84187;SDS011;74316;45.648;13.764;2023-11-21T00:28:11;23.48;;;6.60;;
84187;SDS011;74316;45.648;13.764;2023-11-21T00:30:36;6.30;;;5.63;;
84187;SDS011;74316;45.648;13.764;2023-11-21T00:33:01;5.70;;;5.20;;
84187;SDS011;74316;45.648;13.764;2023-11-21T00:35:27;5.72;;;5.20;;
84187;SDS011;74316;45.648;13.764;2023-11-21T00:37:52;7.95;;;5.35;;
84187;SDS011;74316;45.648;13.764;2023-11-21T00:40:18;6.88;;;5.85;;
84187;SDS011;74316;45.648;13.764;2023-11-21T00:42:46;6.65;;;5.70;;
84187;SDS011;74316;45.648;13.764;2023-11-21T00:45:12;6.53;;;5.85;;
84187;SDS011;74316;45.648;13.764;2023-11-21T00:47:38;5.60;;;4.95;;
84187;SDS011;74316;45.648;13.764;2023-11-21T00:50:03;6.40;;;5.43;;
84187;SDS011;74316;45.648;13.764;2023-11-21T00:52:31;9.20;;;5.30;;
84187;SDS011;74316;45.648;13.764;2023-11-21T00:54:56;6.82;;;5.72;;
84187;SDS011;74316;45.648;13.764;2023-11-21T00:57:24;5.95;;;5.40;;
84187;SDS011;74316;45.648;13.764;2023-11-21T00:59:49;5.80;;;5.13;;
84187;SDS011;74316;45.648;13.764;2023-11-21T01:02:15;7.18;;;5.82;;
84187;SDS011;74316;45.648;13.764;2023-11-21T01:04:40;6.63;;;5.57;;
84187;SDS011;74316;45.648;13.764;2023-11-21T01:07:06;5.90;;;5.40;;
84187;SDS011;74316;45.648;13.764;2023-11-21T01:09:31;5.78;;;4.97;;
84187;SDS011;74316;45.648;13.764;2023-11-21T01:11:57;6.78;;;5.07;;
84187;SDS011;74316;45.648;13.764;2023-11-21T01:14:22;8.20;;;5.45;;
84187;SDS011;74316;45.648;13.764;2023-11-21T01:16:47;6.28;;;5.40;;
84187;SDS011;74316;45.648;13.764;2023-11-21T01:19:14;6.78;;;5.10;;
84187;SDS011;74316;45.648;13.764;2023-11-21T01:21:39;6.60;;;5.45;;
84187;SDS011;74316;45.648;13.764;2023-11-21T01:24:05;6.00;;;5.40;;
84187;SDS011;74316;45.648;13.764;2023-11-21T01:26:32;7.35;;;5.60;;
84187;SDS011;74316;45.648;13.764;2023-11-21T01:28:58;6.20;;;5.30;;
84187;SDS011;74316;45.648;13.764;2023-11-21T01:31:24;6.95;;;5.50;;
84187;SDS011;74316;45.648;13.764;2023-11-21T01:33:52;6.05;;;5.45;;
84187;SDS011;74316;45.648;13.764;2023-11-21T01:36:17;7.43;;;5.28;;
84187;SDS011;74316;45.648;13.764;2023-11-21T01:38:43;6.28;;;4.82;;
84187;SDS011;74316;45.648;13.764;2023-11-21T01:41:08;6.55;;;5.30;;
84187;SDS011;74316;45.648;13.764;2023-11-21T01:43:36;5.43;;;4.88;;
84187;SDS011;74316;45.648;13.764;2023-11-21T01:46:02;5.97;;;5.05;;
84187;SDS011;74316;45.648;13.764;2023-11-21T01:48:28;5.68;;;4.40;;
84187;SDS011;74316;45.648;13.764;2023-11-21T01:50:54;6.93;;;4.90;;
84187;SDS011;74316;45.648;13.764;2023-11-21T01:53:19;5.80;;;5.30;;
84187;SDS011;74316;45.648;13.764;2023-11-21T01:55:45;5.35;;;4.85;;
84187;SDS011;74316;45.648;13.764;2023-11-21T01:58:11;5.47;;;4.82;;
84187;SDS011;74316;45.648;13.764;2023-11-21T02:00:37;5.22;;;4.38;;
84187;SDS011;74316;45.648;13.764;2023-11-21T02:03:03;6.22;;;4.95;;
84187;SDS011;74316;45.648;13.764;2023-11-21T02:05:29;8.02;;;5.35;;
84187;SDS011;74316;45.648;13.764;2023-11-21T02:07:54;7.20;;;5.43;;
84187;SDS011;74316;45.648;13.764;2023-11-21T02:10:21;5.60;;;4.78;;
84187;SDS011;74316;45.648;13.764;2023-11-21T02:12:50;11.40;;;5.25;;
84187;SDS011;74316;45.648;13.764;2023-11-21T02:15:16;6.90;;;4.70;;
84187;SDS011;74316;45.648;13.764;2023-11-21T02:17:45;6.07;;;4.60;;
84187;SDS011;74316;45.648;13.764;2023-11-21T02:20:12;5.25;;;4.45;;
84187;SDS011;74316;45.648;13.764;2023-11-21T02:22:42;6.00;;;4.18;;
84187;SDS011;74316;45.648;13.764;2023-11-21T02:25:10;4.72;;;4.28;;
84187;SDS011;74316;45.648;13.764;2023-11-21T02:27:36;7.05;;;4.50;;
84187;SDS011;74316;45.648;13.764;2023-11-21T02:30:02;5.20;;;4.65;;
84187;SDS011;74316;45.648;13.764;2023-11-21T02:32:29;4.78;;;4.30;;
84187;SDS011;74316;45.648;13.764;2023-11-21T02:34:56;4.93;;;4.45;;
84187;SDS011;74316;45.648;13.764;2023-11-21T02:37:25;4.53;;;4.10;;
84187;SDS011;74316;45.648;13.764;2023-11-21T02:39:51;5.60;;;4.18;;
84187;SDS011;74316;45.648;13.764;2023-11-21T02:42:17;6.47;;;4.97;;
84187;SDS011;74316;45.648;13.764;2023-11-21T02:44:43;6.97;;;4.13;;
84187;SDS011;74316;45.648;13.764;2023-11-21T02:47:09;8.13;;;4.65;;
84187;SDS011;74316;45.648;13.764;2023-11-21T02:49:34;4.80;;;4.25;;
84187;SDS011;74316;45.648;13.764;2023-11-21T02:52:00;5.00;;;4.38;;
84187;SDS011;74316;45.648;13.764;2023-11-21T02:54:26;6.03;;;4.47;;
84187;SDS011;74316;45.648;13.764;2023-11-21T02:56:52;5.10;;;4.18;;
84187;SDS011;74316;45.648;13.764;2023-11-21T02:59:17;4.28;;;3.85;;
84187;SDS011;74316;45.648;13.764;2023-11-21T03:01:44;4.53;;;4.10;;
84187;SDS011;74316;45.648;13.764;2023-11-21T03:04:10;5.72;;;4.28;;
84187;SDS011;74316;45.648;13.764;2023-11-21T03:06:36;4.53;;;4.13;;
84187;SDS011;74316;45.648;13.764;2023-11-21T03:09:01;6.63;;;4.40;;
84187;SDS011;74316;45.648;13.764;2023-11-21T03:11:27;4.47;;;4.07;;
84187;SDS011;74316;45.648;13.764;2023-11-21T03:13:52;5.03;;;4.28;;
84187;SDS011;74316;45.648;13.764;2023-11-21T03:16:18;4.57;;;4.18;;
84187;SDS011;74316;45.648;13.764;2023-11-21T03:18:44;4.20;;;3.80;;
84187;SDS011;74316;45.648;13.764;2023-11-21T03:21:09;4.32;;;3.92;;
84187;SDS011;74316;45.648;13.764;2023-11-21T03:23:35;7.18;;;3.95;;
84187;SDS011;74316;45.648;13.764;2023-11-21T03:26:01;4.38;;;3.90;;
84187;SDS011;74316;45.648;13.764;2023-11-21T03:28:27;6.50;;;4.20;;
84187;SDS011;74316;45.648;13.764;2023-11-21T03:30:53;4.65;;;3.95;;
84187;SDS011;74316;45.648;13.764;2023-11-21T03:33:19;4.53;;;4.07;;
84187;SDS011;74316;45.648;13.764;2023-11-21T03:35:44;4.38;;;3.97;;
84187;SDS011;74316;45.648;13.764;2023-11-21T03:38:10;4.47;;;4.00;;
84187;SDS011;74316;45.648;13.764;2023-11-21T03:40:36;5.93;;;4.20;;
84187;SDS011;74316;45.648;13.764;2023-11-21T03:43:01;4.18;;;3.60;;
84187;SDS011;74316;45.648;13.764;2023-11-21T03:45:27;5.03;;;4.00;;
84187;SDS011;74316;45.648;13.764;2023-11-21T03:47:52;4.45;;;4.10;;
84187;SDS011;74316;45.648;13.764;2023-11-21T03:50:17;4.28;;;3.88;;
84187;SDS011;74316;45.648;13.764;2023-11-21T03:52:43;4.20;;;3.80;;
84187;SDS011;74316;45.648;13.764;2023-11-21T03:55:09;4.30;;;3.88;;
84187;SDS011;74316;45.648;13.764;2023-11-21T03:57:35;4.18;;;3.80;;
84187;SDS011;74316;45.648;13.764;2023-11-21T04:00:01;4.38;;;3.45;;
84187;SDS011;74316;45.648;13.764;2023-11-21T04:02:29;3.67;;;3.38;;
84187;SDS011;74316;45.648;13.764;2023-11-21T04:04:56;3.92;;;3.58;;
84187;SDS011;74316;45.648;13.764;2023-11-21T04:07:22;4.15;;;3.75;;
84187;SDS011;74316;45.648;13.764;2023-11-21T04:09:47;4.13;;;3.47;;
84187;SDS011;74316;45.648;13.764;2023-11-21T04:12:12;4.03;;;3.70;;
84187;SDS011;74316;45.648;13.764;2023-11-21T04:14:38;6.35;;;3.72;;
84187;SDS011;74316;45.648;13.764;2023-11-21T04:17:03;5.10;;;3.63;;
84187;SDS011;74316;45.648;13.764;2023-11-21T04:19:29;4.80;;;3.90;;
84187;SDS011;74316;45.648;13.764;2023-11-21T04:21:55;4.72;;;4.00;;
84187;SDS011;74316;45.648;13.764;2023-11-21T04:24:20;3.80;;;3.38;;
84187;SDS011;74316;45.648;13.764;2023-11-21T04:26:45;4.00;;;3.70;;
84187;SDS011;74316;45.648;13.764;2023-11-21T04:29:11;4.22;;;3.83;;
84187;SDS011;74316;45.648;13.764;2023-11-21T04:31:37;3.85;;;3.42;;
84187;SDS011;74316;45.648;13.764;2023-11-21T04:34:02;3.92;;;3.40;;
84187;SDS011;74316;45.648;13.764;2023-11-21T04:36:29;4.50;;;3.33;;
84187;SDS011;74316;45.648;13.764;2023-11-21T04:38:55;4.05;;;3.50;;
84187;SDS011;74316;45.648;13.764;2023-11-21T04:41:22;6.03;;;3.40;;
84187;SDS011;74316;45.648;13.764;2023-11-21T04:43:48;4.38;;;3.60;;
84187;SDS011;74316;45.648;13.764;2023-11-21T04:46:14;4.00;;;3.60;;
84187;SDS011;74316;45.648;13.764;2023-11-21T04:48:39;3.85;;;3.45;;
84187;SDS011;74316;45.648;13.764;2023-11-21T04:51:05;5.25;;;3.50;;
84187;SDS011;74316;45.648;13.764;2023-11-21T04:53:30;6.63;;;4.13;;
84187;SDS011;74316;45.648;13.764;2023-11-21T04:55:56;3.67;;;3.40;;
84187;SDS011;74316;45.648;13.764;2023-11-21T04:58:21;3.85;;;3.30;;
84187;SDS011;74316;45.648;13.764;2023-11-21T05:00:47;3.83;;;3.42;;
84187;SDS011;74316;45.648;13.764;2023-11-21T05:03:12;4.05;;;3.60;;
84187;SDS011;74316;45.648;13.764;2023-11-21T05:05:38;3.90;;;3.50;;
84187;SDS011;74316;45.648;13.764;2023-11-21T05:08:03;3.60;;;3.30;;
84187;SDS011;74316;45.648;13.764;2023-11-21T05:10:29;3.88;;;3.58;;
84187;SDS011;74316;45.648;13.764;2023-11-21T05:12:55;6.65;;;4.00;;
84187;SDS011;74316;45.648;13.764;2023-11-21T05:15:21;3.53;;;3.22;;
84187;SDS011;74316;45.648;13.764;2023-11-21T05:17:46;6.13;;;3.53;;
84187;SDS011;74316;45.648;13.764;2023-11-21T05:20:14;8.07;;;3.55;;
84187;SDS011;74316;45.648;13.764;2023-11-21T05:22:45;3.50;;;3.20;;
84187;SDS011;74316;45.648;13.764;2023-11-21T05:25:11;3.83;;;3.38;;
84187;SDS011;74316;45.648;13.764;2023-11-21T05:27:36;4.15;;;3.45;;
84187;SDS011;74316;45.648;13.764;2023-11-21T05:30:02;4.05;;;3.65;;
84187;SDS011;74316;45.648;13.764;2023-11-21T05:32:34;5.88;;;3.70;;
84187;SDS011;74316;45.648;13.764;2023-11-21T05:35:00;4.43;;;3.35;;
84187;SDS011;74316;45.648;13.764;2023-11-21T05:37:26;4.13;;;3.50;;
84187;SDS011;74316;45.648;13.764;2023-11-21T05:39:52;3.85;;;3.40;;
84187;SDS011;74316;45.648;13.764;2023-11-21T05:42:21;3.88;;;3.47;;
84187;SDS011;74316;45.648;13.764;2023-11-21T05:44:47;5.65;;;3.00;;
84187;SDS011;74316;45.648;13.764;2023-11-21T05:47:12;4.68;;;3.50;;
84187;SDS011;74316;45.648;13.764;2023-11-21T05:49:38;5.38;;;3.28;;
84187;SDS011;74316;45.648;13.764;2023-11-21T05:52:04;4.13;;;3.22;;
84187;SDS011;74316;45.648;13.764;2023-11-21T05:54:30;4.22;;;3.25;;
84187;SDS011;74316;45.648;13.764;2023-11-21T05:56:55;5.15;;;3.40;;
84187;SDS011;74316;45.648;13.764;2023-11-21T05:59:21;3.85;;;3.25;;
84187;SDS011;74316;45.648;13.764;2023-11-21T06:01:46;3.33;;;3.13;;
84187;SDS011;74316;45.648;13.764;2023-11-21T06:04:12;3.30;;;3.00;;
84187;SDS011;74316;45.648;13.764;2023-11-21T06:06:38;5.18;;;3.20;;
84187;SDS011;74316;45.648;13.764;2023-11-21T06:09:04;4.43;;;3.20;;
84187;SDS011;74316;45.648;13.764;2023-11-21T06:11:31;4.20;;;2.85;;
84187;SDS011;74316;45.648;13.764;2023-11-21T06:13:56;3.55;;;2.80;;
84187;SDS011;74316;45.648;13.764;2023-11-21T06:16:23;4.97;;;2.88;;
84187;SDS011;74316;45.648;13.764;2023-11-21T06:18:49;4.22;;;3.00;;
84187;SDS011;74316;45.648;13.764;2023-11-21T06:21:14;3.70;;;3.20;;
84187;SDS011;74316;45.648;13.764;2023-11-21T06:23:41;3.70;;;3.05;;
84187;SDS011;74316;45.648;13.764;2023-11-21T06:26:07;3.60;;;3.13;;
84187;SDS011;74316;45.648;13.764;2023-11-21T06:28:34;3.00;;;2.80;;
84187;SDS011;74316;45.648;13.764;2023-11-21T06:31:00;4.05;;;3.17;;
84187;SDS011;74316;45.648;13.764;2023-11-21T06:33:30;3.05;;;2.75;;
84187;SDS011;74316;45.648;13.764;2023-11-21T06:35:58;3.20;;;2.95;;
84187;SDS011;74316;45.648;13.764;2023-11-21T06:38:24;4.38;;;2.90;;
84187;SDS011;74316;45.648;13.764;2023-11-21T06:40:49;2.90;;;2.70;;
84187;SDS011;74316;45.648;13.764;2023-11-21T06:43:14;4.15;;;3.15;;
84187;SDS011;74316;45.648;13.764;2023-11-21T06:45:40;3.20;;;2.90;;
84187;SDS011;74316;45.648;13.764;2023-11-21T06:48:06;3.38;;;2.90;;
84187;SDS011;74316;45.648;13.764;2023-11-21T06:50:31;3.10;;;2.88;;
84187;SDS011;74316;45.648;13.764;2023-11-21T06:52:57;3.25;;;2.78;;
84187;SDS011;74316;45.648;13.764;2023-11-21T06:55:22;3.88;;;3.10;;
84187;SDS011;74316;45.648;13.764;2023-11-21T06:57:48;2.83;;;2.50;;
84187;SDS011;74316;45.648;13.764;2023-11-21T07:00:14;2.83;;;2.63;;
84187;SDS011;74316;45.648;13.764;2023-11-21T07:02:41;3.33;;;2.88;;
84187;SDS011;74316;45.648;13.764;2023-11-21T07:05:06;5.30;;;2.72;;
84187;SDS011;74316;45.648;13.764;2023-11-21T07:07:32;3.83;;;2.65;;
84187;SDS011;74316;45.648;13.764;2023-11-21T07:10:00;9.27;;;3.50;;
84187;SDS011;74316;45.648;13.764;2023-11-21T07:12:28;12.45;;;3.63;;
84187;SDS011;74316;45.648;13.764;2023-11-21T07:14:54;15.30;;;3.80;;
84187;SDS011;74316;45.648;13.764;2023-11-21T07:17:19;8.57;;;3.90;;
84187;SDS011;74316;45.648;13.764;2023-11-21T07:19:44;12.32;;;3.47;;
84187;SDS011;74316;45.648;13.764;2023-11-21T07:22:10;14.15;;;2.97;;
84187;SDS011;74316;45.648;13.764;2023-11-21T07:24:36;8.52;;;3.42;;
84187;SDS011;74316;45.648;13.764;2023-11-21T07:27:02;4.00;;;3.30;;
84187;SDS011;74316;45.648;13.764;2023-11-21T07:29:29;11.45;;;2.65;;
84187;SDS011;74316;45.648;13.764;2023-11-21T07:31:54;7.90;;;3.08;;
84187;SDS011;74316;45.648;13.764;2023-11-21T07:34:20;7.97;;;2.88;;
84187;SDS011;74316;45.648;13.764;2023-11-21T07:36:46;7.60;;;2.97;;
84187;SDS011;74316;45.648;13.764;2023-11-21T07:39:12;10.02;;;3.25;;
84187;SDS011;74316;45.648;13.764;2023-11-21T07:41:37;8.40;;;2.67;;
84187;SDS011;74316;45.648;13.764;2023-11-21T07:44:09;5.63;;;2.60;;
84187;SDS011;74316;45.648;13.764;2023-11-21T07:46:35;11.00;;;2.53;;
84187;SDS011;74316;45.648;13.764;2023-11-21T07:49:00;6.32;;;2.72;;
84187;SDS011;74316;45.648;13.764;2023-11-21T07:51:26;15.90;;;2.70;;
84187;SDS011;74316;45.648;13.764;2023-11-21T07:53:51;5.85;;;2.60;;
84187;SDS011;74316;45.648;13.764;2023-11-21T07:56:17;6.65;;;2.65;;
84187;SDS011;74316;45.648;13.764;2023-11-21T07:58:43;2.97;;;2.13;;
84187;SDS011;74316;45.648;13.764;2023-11-21T08:01:09;3.40;;;1.65;;
84187;SDS011;74316;45.648;13.764;2023-11-21T08:03:35;3.47;;;1.70;;
84187;SDS011;74316;45.648;13.764;2023-11-21T08:06:00;2.08;;;1.83;;
84187;SDS011;74316;45.648;13.764;2023-11-21T08:08:28;2.72;;;1.85;;
84187;SDS011;74316;45.648;13.764;2023-11-21T08:10:54;3.60;;;1.98;;
84187;SDS011;74316;45.648;13.764;2023-11-21T08:13:25;2.53;;;1.92;;
84187;SDS011;74316;45.648;13.764;2023-11-21T08:15:54;2.92;;;1.63;;
84187;SDS011;74316;45.648;13.764;2023-11-21T08:18:21;1.70;;;1.60;;
84187;SDS011;74316;45.648;13.764;2023-11-21T08:20:47;5.55;;;1.80;;
84187;SDS011;74316;45.648;13.764;2023-11-21T08:23:14;2.17;;;1.50;;
84187;SDS011;74316;45.648;13.764;2023-11-21T08:25:40;2.17;;;1.55;;
84187;SDS011;74316;45.648;13.764;2023-11-21T08:28:07;2.25;;;1.63;;
84187;SDS011;74316;45.648;13.764;2023-11-21T08:30:33;1.50;;;1.40;;
84187;SDS011;74316;45.648;13.764;2023-11-21T08:32:59;2.45;;;1.92;;
84187;SDS011;74316;45.648;13.764;2023-11-21T08:35:25;4.75;;;1.52;;
84187;SDS011;74316;45.648;13.764;2023-11-21T08:37:51;1.88;;;1.40;;
84187;SDS011;74316;45.648;13.764;2023-11-21T08:40:17;2.80;;;1.70;;
84187;SDS011;74316;45.648;13.764;2023-11-21T08:42:44;2.55;;;1.90;;
84187;SDS011;74316;45.648;13.764;2023-11-21T08:45:10;2.70;;;1.58;;
84187;SDS011;74316;45.648;13.764;2023-11-21T08:47:38;1.52;;;1.42;;
84187;SDS011;74316;45.648;13.764;2023-11-21T08:50:04;3.83;;;1.60;;
84187;SDS011;74316;45.648;13.764;2023-11-21T08:52:33;1.40;;;1.30;;
84187;SDS011;74316;45.648;13.764;2023-11-21T08:54:59;1.42;;;1.33;;
84187;SDS011;74316;45.648;13.764;2023-11-21T08:57:28;2.38;;;1.70;;
84187;SDS011;74316;45.648;13.764;2023-11-21T08:59:53;5.15;;;1.45;;
84187;SDS011;74316;45.648;13.764;2023-11-21T09:02:21;1.60;;;1.50;;
84187;SDS011;74316;45.648;13.764;2023-11-21T09:04:48;1.35;;;1.25;;
84187;SDS011;74316;45.648;13.764;2023-11-21T09:07:14;1.48;;;1.25;;
84187;SDS011;74316;45.648;13.764;2023-11-21T09:09:39;2.45;;;1.83;;
84187;SDS011;74316;45.648;13.764;2023-11-21T09:12:04;4.45;;;1.50;;
84187;SDS011;74316;45.648;13.764;2023-11-21T09:14:30;4.57;;;1.70;;
84187;SDS011;74316;45.648;13.764;2023-11-21T09:16:56;7.38;;;2.05;;
84187;SDS011;74316;45.648;13.764;2023-11-21T09:19:21;1.75;;;1.42;;
84187;SDS011;74316;45.648;13.764;2023-11-21T09:21:47;1.75;;;1.63;;
84187;SDS011;74316;45.648;13.764;2023-11-21T09:24:12;1.77;;;1.50;;
84187;SDS011;74316;45.648;13.764;2023-11-21T09:26:37;7.93;;;1.63;;
84187;SDS011;74316;45.648;13.764;2023-11-21T09:29:03;5.18;;;1.60;;
84187;SDS011;74316;45.648;13.764;2023-11-21T09:31:28;2.15;;;1.75;;
84187;SDS011;74316;45.648;13.764;2023-11-21T09:33:54;3.67;;;1.67;;
84187;SDS011;74316;45.648;13.764;2023-11-21T09:36:19;6.50;;;1.52;;
84187;SDS011;74316;45.648;13.764;2023-11-21T09:38:48;2.20;;;1.50;;
84187;SDS011;74316;45.648;13.764;2023-11-21T09:41:21;4.60;;;1.50;;
84187;SDS011;74316;45.648;13.764;2023-11-21T09:43:55;2.65;;;1.33;;
84187;SDS011;74316;45.648;13.764;2023-11-21T09:46:24;5.13;;;1.35;;
84187;SDS011;74316;45.648;13.764;2023-11-21T09:48:53;1.42;;;1.15;;
84187;SDS011;74316;45.648;13.764;2023-11-21T09:51:21;1.45;;;1.35;;
84187;SDS011;74316;45.648;13.764;2023-11-21T09:53:54;1.67;;;1.40;;
84187;SDS011;74316;45.648;13.764;2023-11-21T09:56:24;1.33;;;1.25;;
84187;SDS011;74316;45.648;13.764;2023-11-21T09:58:52;2.85;;;1.20;;
84187;SDS011;74316;45.648;13.764;2023-11-21T10:01:18;7.53;;;1.23;;
84187;SDS011;74316;45.648;13.764;2023-11-21T10:03:45;5.95;;;1.30;;
84187;SDS011;74316;45.648;13.764;2023-11-21T10:06:12;3.13;;;1.10;;
84187;SDS011;74316;45.648;13.764;2023-11-21T10:08:39;1.20;;;1.10;;
84187;SDS011;74316;45.648;13.764;2023-11-21T10:11:05;1.30;;;1.20;;
84187;SDS011;74316;45.648;13.764;2023-11-21T10:13:36;4.70;;;1.38;;
84187;SDS011;74316;45.648;13.764;2023-11-21T10:16:02;4.82;;;1.08;;
84187;SDS011;74316;45.648;13.764;2023-11-21T10:18:31;1.55;;;1.33;;
84187;SDS011;74316;45.648;13.764;2023-11-21T10:20:59;1.73;;;1.20;;
84187;SDS011;74316;45.648;13.764;2023-11-21T10:23:25;1.00;;;1.00;;
84187;SDS011;74316;45.648;13.764;2023-11-21T10:25:51;1.65;;;1.00;;
84187;SDS011;74316;45.648;13.764;2023-11-21T10:28:17;1.10;;;1.10;;
84187;SDS011;74316;45.648;13.764;2023-11-21T10:30:42;3.28;;;1.10;;
84187;SDS011;74316;45.648;13.764;2023-11-21T10:33:09;1.77;;;0.88;;
84187;SDS011;74316;45.648;13.764;2023-11-21T10:35:39;1.75;;;0.82;;
84187;SDS011;74316;45.648;13.764;2023-11-21T10:38:05;0.85;;;0.82;;
84187;SDS011;74316;45.648;13.764;2023-11-21T10:40:30;0.90;;;0.90;;
84187;SDS011;74316;45.648;13.764;2023-11-21T10:43:05;0.77;;;0.77;;
84187;SDS011;74316;45.648;13.764;2023-11-21T10:45:33;1.33;;;0.77;;
84187;SDS011;74316;45.648;13.764;2023-11-21T10:47:59;2.88;;;1.10;;
84187;SDS011;74316;45.648;13.764;2023-11-21T10:50:25;0.75;;;0.70;;
84187;SDS011;74316;45.648;13.764;2023-11-21T10:52:51;0.90;;;0.90;;
84187;SDS011;74316;45.648;13.764;2023-11-21T10:55:17;4.10;;;0.80;;
84187;SDS011;74316;45.648;13.764;2023-11-21T10:57:44;1.83;;;0.90;;
84187;SDS011;74316;45.648;13.764;2023-11-21T11:00:13;1.73;;;0.85;;
84187;SDS011;74316;45.648;13.764;2023-11-21T11:02:40;1.00;;;0.77;;
84187;SDS011;74316;45.648;13.764;2023-11-21T11:05:06;1.05;;;0.90;;
84187;SDS011;74316;45.648;13.764;2023-11-21T11:07:36;5.45;;;0.88;;
84187;SDS011;74316;45.648;13.764;2023-11-21T11:10:08;1.23;;;0.95;;
84187;SDS011;74316;45.648;13.764;2023-11-21T11:12:39;1.92;;;0.80;;
84187;SDS011;74316;45.648;13.764;2023-11-21T11:15:05;0.73;;;0.73;;
84187;SDS011;74316;45.648;13.764;2023-11-21T11:17:32;3.97;;;0.88;;
84187;SDS011;74316;45.648;13.764;2023-11-21T11:19:58;1.20;;;1.10;;
84187;SDS011;74316;45.648;13.764;2023-11-21T11:25:12;5.40;;;1.02;;
84187;SDS011;74316;45.648;13.764;2023-11-21T11:28:07;0.70;;;0.70;;
84187;SDS011;74316;45.648;13.764;2023-11-21T11:38:38;2.13;;;1.00;;
84187;SDS011;74316;45.648;13.764;2023-11-21T11:41:10;1.10;;;1.00;;
84187;SDS011;74316;45.648;13.764;2023-11-21T11:43:35;0.80;;;0.80;;
84187;SDS011;74316;45.648;13.764;2023-11-21T11:46:09;0.82;;;0.80;;
84187;SDS011;74316;45.648;13.764;2023-11-21T11:48:39;0.88;;;0.88;;
84187;SDS011;74316;45.648;13.764;2023-11-21T11:51:06;2.00;;;1.10;;
84187;SDS011;74316;45.648;13.764;2023-11-21T11:53:46;0.80;;;0.80;;
84187;SDS011;74316;45.648;13.764;2023-11-21T11:58:51;2.13;;;1.00;;
84187;SDS011;74316;45.648;13.764;2023-11-21T12:01:21;1.13;;;1.00;;
84187;SDS011;74316;45.648;13.764;2023-11-21T12:06:46;0.80;;;0.80;;
84187;SDS011;74316;45.648;13.764;2023-11-21T12:09:19;0.80;;;0.80;;
84187;SDS011;74316;45.648;13.764;2023-11-21T12:11:46;0.80;;;0.80;;
84187;SDS011;74316;45.648;13.764;2023-11-21T12:14:12;0.75;;;0.75;;
84187;SDS011;74316;45.648;13.764;2023-11-21T12:16:39;1.08;;;0.88;;
84187;SDS011;74316;45.648;13.764;2023-11-21T12:19:05;1.25;;;0.80;;
84187;SDS011;74316;45.648;13.764;2023-11-21T12:21:30;0.60;;;0.60;;
84187;SDS011;74316;45.648;13.764;2023-11-21T12:23:57;0.93;;;0.70;;
84187;SDS011;74316;45.648;13.764;2023-11-21T12:26:25;0.60;;;0.60;;
84187;SDS011;74316;45.648;13.764;2023-11-21T12:28:52;0.82;;;0.70;;
84187;SDS011;74316;45.648;13.764;2023-11-21T12:31:21;3.38;;;0.63;;
84187;SDS011;74316;45.648;13.764;2023-11-21T12:33:47;1.90;;;0.90;;
84187;SDS011;74316;45.648;13.764;2023-11-21T12:36:13;1.98;;;0.88;;
84187;SDS011;74316;45.648;13.764;2023-11-21T12:38:39;0.80;;;0.80;;
84187;SDS011;74316;45.648;13.764;2023-11-21T12:41:05;0.55;;;0.55;;
84187;SDS011;74316;45.648;13.764;2023-11-21T12:43:31;0.70;;;0.60;;
84187;SDS011;74316;45.648;13.764;2023-11-21T12:48:34;0.80;;;0.80;;
84187;SDS011;74316;45.648;13.764;2023-11-21T12:51:09;1.08;;;0.85;;
84187;SDS011;74316;45.648;13.764;2023-11-21T12:53:35;0.68;;;0.68;;
84187;SDS011;74316;45.648;13.764;2023-11-21T12:56:07;1.27;;;0.75;;
84187;SDS011;74316;45.648;13.764;2023-11-21T12:58:38;0.77;;;0.50;;
84187;SDS011;74316;45.648;13.764;2023-11-21T13:01:07;0.50;;;0.50;;
84187;SDS011;74316;45.648;13.764;2023-11-21T13:03:43;1.17;;;0.80;;
84187;SDS011;74316;45.648;13.764;2023-11-21T13:06:10;0.68;;;0.68;;
84187;SDS011;74316;45.648;13.764;2023-11-21T13:08:37;0.85;;;0.57;;
84187;SDS011;74316;45.648;13.764;2023-11-21T13:11:04;6.57;;;0.80;;
84187;SDS011;74316;45.648;13.764;2023-11-21T13:13:31;2.30;;;1.02;;
84187;SDS011;74316;45.648;13.764;2023-11-21T13:15:58;5.30;;;1.20;;
84187;SDS011;74316;45.648;13.764;2023-11-21T13:18:27;5.53;;;1.40;;
84187;SDS011;74316;45.648;13.764;2023-11-21T13:20:54;7.60;;;1.60;;
84187;SDS011;74316;45.648;13.764;2023-11-21T13:23:20;5.10;;;1.10;;
84187;SDS011;74316;45.648;13.764;2023-11-21T13:25:47;3.47;;;1.08;;
84187;SDS011;74316;45.648;13.764;2023-11-21T13:28:14;3.72;;;1.17;;
84187;SDS011;74316;45.648;13.764;2023-11-21T13:30:40;2.33;;;0.85;;
84187;SDS011;74316;45.648;13.764;2023-11-21T13:33:07;2.40;;;1.08;;
84187;SDS011;74316;45.648;13.764;2023-11-21T13:35:36;4.07;;;1.10;;
84187;SDS011;74316;45.648;13.764;2023-11-21T13:38:13;2.67;;;0.80;;
84187;SDS011;74316;45.648;13.764;2023-11-21T13:40:42;4.75;;;1.10;;
84187;SDS011;74316;45.648;13.764;2023-11-21T13:43:14;5.32;;;1.13;;
84187;SDS011;74316;45.648;13.764;2023-11-21T13:45:41;5.88;;;0.95;;
84187;SDS011;74316;45.648;13.764;2023-11-21T13:48:08;4.07;;;0.90;;
84187;SDS011;74316;45.648;13.764;2023-11-21T13:50:36;4.38;;;0.80;;
84187;SDS011;74316;45.648;13.764;2023-11-21T13:53:02;3.53;;;0.90;;
84187;SDS011;74316;45.648;13.764;2023-11-21T13:55:48;4.70;;;0.90;;
84187;SDS011;74316;45.648;13.764;2023-11-21T13:58:14;3.15;;;1.10;;
84187;SDS011;74316;45.648;13.764;2023-11-21T14:00:47;4.18;;;0.80;;
84187;SDS011;74316;45.648;13.764;2023-11-21T14:03:17;2.22;;;1.13;;
84187;SDS011;74316;45.648;13.764;2023-11-21T14:05:46;2.30;;;0.80;;
84187;SDS011;74316;45.648;13.764;2023-11-21T14:08:16;1.30;;;0.85;;
84187;SDS011;74316;45.648;13.764;2023-11-21T14:10:46;2.25;;;1.00;;
84187;SDS011;74316;45.648;13.764;2023-11-21T14:13:26;6.25;;;1.15;;
84187;SDS011;74316;45.648;13.764;2023-11-21T14:15:52;1.88;;;0.70;;
84187;SDS011;74316;45.648;13.764;2023-11-21T14:18:23;3.08;;;0.95;;
84187;SDS011;74316;45.648;13.764;2023-11-21T14:20:55;2.20;;;1.05;;
84187;SDS011;74316;45.648;13.764;2023-11-21T14:23:21;1.73;;;1.00;;
84187;SDS011;74316;45.648;13.764;2023-11-21T14:25:48;2.00;;;0.77;;
84187;SDS011;74316;45.648;13.764;2023-11-21T14:28:15;2.83;;;1.00;;
84187;SDS011;74316;45.648;13.764;2023-11-21T14:30:40;1.52;;;1.02;;
84187;SDS011;74316;45.648;13.764;2023-11-21T14:33:07;1.80;;;0.60;;
84187;SDS011;74316;45.648;13.764;2023-11-21T14:35:34;2.95;;;0.90;;
84187;SDS011;74316;45.648;13.764;2023-11-21T14:38:00;2.03;;;0.70;;
84187;SDS011;74316;45.648;13.764;2023-11-21T14:40:29;1.23;;;0.80;;
84187;SDS011;74316;45.648;13.764;2023-11-21T14:42:58;1.25;;;0.90;;
84187;SDS011;74316;45.648;13.764;2023-11-21T14:45:25;6.65;;;0.90;;
84187;SDS011;74316;45.648;13.764;2023-11-21T14:47:52;2.10;;;0.93;;
84187;SDS011;74316;45.648;13.764;2023-11-21T14:50:43;1.90;;;0.80;;